Time;durP1;ratioP1;P1;durP2;ratioP2;P2;SDS_P1;SDS_P2;PMS_P1;PMS_P2;Temp;Humidity;BMP_temperature;BMP_pressure;BME280_temperature;BME280_humidity;BME280_pressure;Samples;Min_cycle;Max_cycle;Signal;HPM_P1;HPM_P2
2021/05/26 00:01:41;;;;;;;1.60;1.50;;;9.10;99.90;;;;;;494161;241;28297;-73
2021/05/26 00:03:42;;;;;;;5.93;1.90;;;9.20;99.90;;;;;;494152;241;27897;-74
2021/05/26 00:05:44;;;;;;;4.70;2.33;;;9.20;99.90;;;;;;494128;241;27770;-74
2021/05/26 00:07:45;;;;;;;2.20;2.00;;;9.20;99.90;;;;;;494120;241;28410;-74
2021/05/26 00:09:46;;;;;;;3.57;1.63;;;9.20;99.90;;;;;;494094;241;28204;-74
2021/05/26 00:11:47;;;;;;;4.63;1.80;;;9.20;99.90;;;;;;494035;241;28655;-74
2021/05/26 00:13:49;;;;;;;2.77;2.03;;;9.20;99.90;;;;;;494049;241;28519;-74
2021/05/26 00:15:50;;;;;;;5.27;2.10;;;9.20;99.90;;;;;;494054;241;27984;-74
2021/05/26 00:17:51;;;;;;;3.70;1.80;;;9.20;99.90;;;;;;494081;241;28005;-74
2021/05/26 00:19:52;;;;;;;3.17;1.77;;;9.20;99.90;;;;;;494012;241;27981;-74
2021/05/26 00:21:54;;;;;;;7.10;1.90;;;9.20;99.90;;;;;;494091;241;27970;-74
2021/05/26 00:23:55;;;;;;;2.27;1.87;;;9.20;99.90;;;;;;494062;241;27600;-74
2021/05/26 00:25:56;;;;;;;7.20;2.20;;;9.20;99.90;;;;;;494089;241;27517;-75
2021/05/26 00:27:58;;;;;;;3.63;2.10;;;9.20;99.90;;;;;;494131;240;27669;-75
2021/05/26 00:29:58;;;;;;;3.90;1.80;;;9.20;99.90;;;;;;494116;241;27623;-74
2021/05/26 00:32:00;;;;;;;3.20;1.90;;;9.20;99.90;;;;;;494138;237;27951;-74
2021/05/26 00:34:01;;;;;;;3.03;1.77;;;9.20;99.90;;;;;;494067;241;28149;-75
2021/05/26 00:36:02;;;;;;;2.70;1.60;;;9.20;99.90;;;;;;494049;241;27733;-73
2021/05/26 00:38:03;;;;;;;4.50;1.83;;;9.30;99.90;;;;;;494067;241;27582;-74
2021/05/26 00:40:05;;;;;;;3.97;1.80;;;9.30;99.90;;;;;;494092;241;27615;-75
2021/05/26 00:42:06;;;;;;;4.63;1.97;;;9.30;99.90;;;;;;494179;241;28023;-74
2021/05/26 00:44:07;;;;;;;2.53;2.00;;;9.30;99.90;;;;;;494182;241;28435;-74
2021/05/26 00:46:08;;;;;;;1.63;1.50;;;9.30;99.90;;;;;;494153;241;28154;-74
2021/05/26 00:48:10;;;;;;;4.57;2.13;;;9.30;99.90;;;;;;494178;240;28142;-74
2021/05/26 00:50:11;;;;;;;3.17;1.70;;;9.30;99.90;;;;;;494084;241;28506;-74
2021/05/26 00:52:12;;;;;;;2.83;1.60;;;9.30;99.90;;;;;;494093;241;28364;-74
2021/05/26 00:54:13;;;;;;;2.87;1.50;;;9.30;99.90;;;;;;494067;241;27958;-74
2021/05/26 00:56:15;;;;;;;2.30;1.90;;;9.30;99.90;;;;;;493851;241;28071;-74
2021/05/26 00:58:16;;;;;;;5.40;2.00;;;9.20;99.90;;;;;;494086;241;27743;-74
2021/05/26 01:00:20;;;;;;;2.97;1.93;;;9.30;99.90;;;;;;493984;237;28072;-75
2021/05/26 01:02:21;;;;;;;2.90;1.77;;;9.20;99.90;;;;;;494102;241;27739;-74
2021/05/26 01:04:23;;;;;;;3.70;1.53;;;9.20;99.90;;;;;;494079;239;27564;-74
2021/05/26 01:06:24;;;;;;;1.83;1.50;;;9.20;99.90;;;;;;494010;240;27962;-74
2021/05/26 01:08:25;;;;;;;2.73;1.93;;;9.20;99.90;;;;;;494029;241;27953;-74
2021/05/26 01:10:26;;;;;;;5.03;2.03;;;9.20;99.90;;;;;;494080;241;27945;-74
2021/05/26 01:12:28;;;;;;;3.20;1.70;;;9.20;99.90;;;;;;494094;241;28457;-74
2021/05/26 01:14:29;;;;;;;5.70;3.07;;;9.20;99.90;;;;;;494115;241;28380;-73
2021/05/26 01:16:30;;;;;;;2.50;1.93;;;9.20;99.90;;;;;;494086;241;28473;-73
2021/05/26 01:18:31;;;;;;;5.77;1.97;;;9.20;99.90;;;;;;494178;241;28890;-74
2021/05/26 01:20:33;;;;;;;4.00;1.93;;;9.20;99.90;;;;;;494106;241;28456;-74
2021/05/26 01:22:34;;;;;;;3.47;1.70;;;9.20;99.90;;;;;;494119;241;28571;-75
2021/05/26 01:24:35;;;;;;;7.00;2.00;;;9.20;99.90;;;;;;494106;241;28044;-75
2021/05/26 01:26:36;;;;;;;3.70;2.07;;;9.20;99.90;;;;;;494134;241;28029;-74
2021/05/26 01:28:37;;;;;;;1.80;1.70;;;9.20;99.90;;;;;;494203;241;28015;-74
2021/05/26 01:30:39;;;;;;;4.13;2.13;;;9.20;99.90;;;;;;494168;241;28037;-74
2021/05/26 01:32:40;;;;;;;3.17;1.70;;;9.30;99.90;;;;;;494094;241;28014;-74
2021/05/26 01:34:41;;;;;;;3.50;2.10;;;9.20;99.90;;;;;;494097;241;27720;-74
2021/05/26 01:36:42;;;;;;;2.10;1.53;;;9.20;99.90;;;;;;494079;241;27989;-75
2021/05/26 01:38:44;;;;;;;3.50;2.10;;;9.20;99.90;;;;;;494094;241;27816;-74
2021/05/26 01:40:45;;;;;;;3.63;1.90;;;9.20;99.90;;;;;;493867;241;27984;-74
2021/05/26 01:42:46;;;;;;;4.10;1.70;;;9.20;99.90;;;;;;494098;241;27676;-74
2021/05/26 01:44:48;;;;;;;3.90;1.77;;;9.10;99.90;;;;;;494079;241;27941;-74
2021/05/26 01:46:49;;;;;;;3.40;1.70;;;9.10;99.90;;;;;;494073;241;27863;-74
2021/05/26 01:48:50;;;;;;;3.57;1.80;;;9.10;99.90;;;;;;494061;241;27979;-74
2021/05/26 01:50:51;;;;;;;2.60;1.60;;;9.10;99.90;;;;;;494072;241;27770;-74
2021/05/26 01:52:53;;;;;;;3.83;1.97;;;9.10;99.90;;;;;;494167;241;27946;-74
2021/05/26 01:54:54;;;;;;;4.20;1.90;;;9.00;99.90;;;;;;494173;241;27469;-74
2021/05/26 01:56:55;;;;;;;2.73;2.43;;;9.00;99.90;;;;;;494186;241;28098;-74
2021/05/26 01:58:56;;;;;;;3.77;1.53;;;8.90;99.90;;;;;;494149;241;27940;-74
2021/05/26 02:00:58;;;;;;;3.03;1.80;;;9.00;99.90;;;;;;494123;241;27740;-74
2021/05/26 02:02:59;;;;;;;1.70;1.50;;;8.90;99.90;;;;;;494160;241;27982;-75
2021/05/26 02:05:00;;;;;;;3.53;2.07;;;8.90;99.90;;;;;;494156;241;28052;-74
2021/05/26 02:07:01;;;;;;;2.60;1.60;;;8.90;99.90;;;;;;494118;241;28902;-75
2021/05/26 02:09:03;;;;;;;3.40;1.67;;;8.80;99.90;;;;;;494170;241;28473;-74
2021/05/26 02:13:23;;;;;;;2.33;1.83;;;8.80;99.90;;;;;;494173;241;27759;-74
2021/05/26 02:15:25;;;;;;;2.40;1.80;;;8.80;99.90;;;;;;494028;241;27864;-74
2021/05/26 02:17:26;;;;;;;7.47;1.97;;;8.80;99.90;;;;;;494063;237;27905;-75
2021/05/26 02:19:27;;;;;;;3.03;1.80;;;8.80;99.90;;;;;;494140;241;27614;-74
2021/05/26 02:21:29;;;;;;;5.93;1.80;;;8.70;99.90;;;;;;494153;241;27557;-75
2021/05/26 02:23:30;;;;;;;3.30;2.00;;;8.70;99.90;;;;;;494189;241;28070;-75
2021/05/26 02:25:31;;;;;;;3.70;1.60;;;8.70;99.90;;;;;;494159;241;28080;-74
2021/05/26 02:27:32;;;;;;;2.90;1.60;;;8.70;99.90;;;;;;494123;241;27993;-74
2021/05/26 02:29:34;;;;;;;2.20;1.60;;;8.60;99.90;;;;;;494204;241;28296;-74
2021/05/26 02:31:35;;;;;;;3.00;1.80;;;8.60;99.90;;;;;;494196;241;27825;-75
2021/05/26 02:33:37;;;;;;;3.47;1.70;;;8.60;99.90;;;;;;494179;241;27615;-74
2021/05/26 02:35:37;;;;;;;3.10;2.00;;;8.60;99.90;;;;;;494117;241;28027;-75
2021/05/26 02:37:39;;;;;;;5.37;2.57;;;8.60;99.90;;;;;;494149;241;28293;-74
2021/05/26 02:39:40;;;;;;;2.63;2.03;;;8.70;99.90;;;;;;494104;241;28337;-74
2021/05/26 02:41:41;;;;;;;4.67;1.80;;;8.70;99.90;;;;;;494089;241;28497;-74
2021/05/26 02:43:42;;;;;;;5.00;2.20;;;8.70;99.90;;;;;;493927;241;28269;-74
2021/05/26 02:45:44;;;;;;;3.43;1.83;;;8.70;99.90;;;;;;494047;241;28430;-74
2021/05/26 02:47:45;;;;;;;3.37;1.90;;;8.70;99.90;;;;;;494087;241;27998;-74
2021/05/26 02:49:46;;;;;;;3.73;2.27;;;8.70;99.90;;;;;;494033;241;27959;-74
2021/05/26 02:51:47;;;;;;;6.20;2.00;;;8.70;99.90;;;;;;494173;241;27694;-75
2021/05/26 02:53:49;;;;;;;3.50;1.90;;;8.70;99.90;;;;;;494169;241;27996;-75
2021/05/26 02:55:50;;;;;;;3.10;2.30;;;8.70;99.90;;;;;;494115;241;27929;-75
2021/05/26 02:57:51;;;;;;;1.93;1.80;;;8.70;99.90;;;;;;494140;241;27947;-75
2021/05/26 02:59:52;;;;;;;2.57;2.13;;;8.70;99.90;;;;;;494098;241;28065;-75
2021/05/26 03:01:54;;;;;;;6.53;2.30;;;8.70;99.90;;;;;;494003;241;27850;-75
2021/05/26 03:03:55;;;;;;;2.47;1.70;;;8.60;99.90;;;;;;494025;241;28002;-75
2021/05/26 03:05:56;;;;;;;5.60;2.40;;;8.60;99.90;;;;;;494156;239;27918;-75
2021/05/26 03:07:58;;;;;;;2.17;2.00;;;8.60;99.90;;;;;;494036;241;27888;-74
2021/05/26 03:09:59;;;;;;;1.70;1.60;;;8.60;99.90;;;;;;494055;241;27966;-75
2021/05/26 03:12:00;;;;;;;2.90;1.70;;;8.60;99.90;;;;;;494074;241;27916;-75
2021/05/26 03:14:01;;;;;;;3.63;2.00;;;8.60;99.90;;;;;;494076;241;27738;-74
2021/05/26 03:16:05;;;;;;;4.53;2.10;;;8.60;99.90;;;;;;494082;241;28326;-75
2021/05/26 03:18:06;;;;;;;1.80;1.70;;;8.60;99.90;;;;;;494083;241;28041;-75
2021/05/26 03:20:07;;;;;;;3.00;2.07;;;8.60;99.90;;;;;;494068;241;28099;-75
2021/05/26 03:22:09;;;;;;;2.67;1.90;;;8.60;99.90;;;;;;494143;241;27950;-75
2021/05/26 03:24:11;;;;;;;6.03;2.10;;;8.60;99.90;;;;;;494146;241;27956;-75
2021/05/26 03:26:12;;;;;;;2.73;2.20;;;8.70;99.90;;;;;;493988;241;27985;-75
2021/05/26 03:28:12;;;;;;;3.50;2.40;;;8.60;99.90;;;;;;494104;241;28114;-74
2021/05/26 03:30:14;;;;;;;2.40;2.00;;;8.60;99.90;;;;;;494175;241;28011;-75
2021/05/26 03:32:15;;;;;;;2.60;1.90;;;8.60;99.90;;;;;;494067;239;27689;-75
2021/05/26 03:34:16;;;;;;;4.30;2.87;;;8.70;99.90;;;;;;494094;241;27866;-75
2021/05/26 03:36:17;;;;;;;3.90;2.60;;;8.60;99.90;;;;;;494126;241;28427;-74
2021/05/26 03:38:19;;;;;;;3.97;2.30;;;8.60;99.90;;;;;;494066;241;28346;-74
2021/05/26 03:40:20;;;;;;;3.50;2.30;;;8.70;99.90;;;;;;494062;241;28071;-75
2021/05/26 03:42:21;;;;;;;4.87;2.40;;;8.60;99.90;;;;;;494091;241;27813;-75
2021/05/26 03:44:22;;;;;;;5.87;2.40;;;8.60;99.90;;;;;;494081;237;28452;-75
2021/05/26 03:46:24;;;;;;;8.10;3.17;;;8.70;99.90;;;;;;494146;237;28491;-75
2021/05/26 03:48:25;;;;;;;5.83;2.53;;;8.60;99.90;;;;;;494193;241;28474;-75
2021/05/26 03:50:27;;;;;;;6.63;2.43;;;8.60;99.90;;;;;;494074;241;28039;-75
2021/05/26 03:52:27;;;;;;;9.07;2.60;;;8.60;99.90;;;;;;494095;241;28496;-75
2021/05/26 03:54:29;;;;;;;2.80;2.13;;;8.60;99.90;;;;;;493995;241;27995;-74
2021/05/26 03:56:30;;;;;;;6.27;2.80;;;8.60;99.90;;;;;;494078;241;27725;-75
2021/05/26 03:58:31;;;;;;;2.63;1.93;;;8.60;99.90;;;;;;494070;241;27851;-75
2021/05/26 04:00:32;;;;;;;5.53;2.03;;;8.60;99.90;;;;;;494030;241;28213;-75
2021/05/26 04:02:34;;;;;;;5.47;2.37;;;8.70;99.90;;;;;;494164;241;27790;-75
2021/05/26 04:04:39;;;;;;;7.40;3.07;;;8.70;99.90;;;;;;494045;241;27833;-75
2021/05/26 04:06:36;;;;;;;5.30;2.37;;;8.70;99.90;;;;;;493791;241;27939;-75
2021/05/26 04:08:37;;;;;;;3.10;1.90;;;8.60;99.90;;;;;;494059;241;27985;-75
2021/05/26 04:10:39;;;;;;;2.20;1.90;;;8.70;99.90;;;;;;494078;241;27972;-75
2021/05/26 04:12:40;;;;;;;1.97;1.77;;;8.70;99.90;;;;;;494066;239;27934;-75
2021/05/26 04:14:41;;;;;;;3.63;2.20;;;8.70;99.90;;;;;;494102;241;27687;-75
2021/05/26 04:16:43;;;;;;;3.43;2.00;;;8.70;99.90;;;;;;494178;237;28076;-74
2021/05/26 04:18:44;;;;;;;10.83;2.80;;;8.70;99.90;;;;;;494079;241;27942;-75
2021/05/26 04:20:45;;;;;;;4.23;2.20;;;8.80;99.90;;;;;;494076;241;27687;-75
2021/05/26 04:22:46;;;;;;;3.53;2.07;;;8.80;99.90;;;;;;494085;241;27902;-75
2021/05/26 04:24:48;;;;;;;5.60;2.60;;;8.90;99.90;;;;;;494086;241;28111;-74
2021/05/26 04:26:49;;;;;;;5.37;3.17;;;8.90;99.90;;;;;;494195;241;27999;-75
2021/05/26 04:28:50;;;;;;;4.47;2.87;;;8.90;99.90;;;;;;494214;241;27963;-75
2021/05/26 04:30:51;;;;;;;3.90;2.03;;;9.00;99.90;;;;;;494092;241;28059;-75
2021/05/26 04:32:53;;;;;;;6.40;2.77;;;9.00;99.90;;;;;;494084;241;27937;-74
2021/05/26 04:34:54;;;;;;;4.10;2.00;;;9.10;99.90;;;;;;494160;241;27709;-75
2021/05/26 04:36:55;;;;;;;3.67;1.80;;;9.10;99.90;;;;;;494193;241;27905;-74
2021/05/26 04:38:56;;;;;;;3.40;2.20;;;9.00;99.90;;;;;;494151;241;28473;-75
2021/05/26 04:40:59;;;;;;;5.33;2.47;;;9.00;99.90;;;;;;494141;241;28415;-75
2021/05/26 04:42:59;;;;;;;12.10;3.37;;;9.00;99.90;;;;;;493981;241;28007;-74
2021/05/26 04:45:00;;;;;;;4.73;2.40;;;8.90;99.90;;;;;;494095;239;28556;-75
2021/05/26 04:47:01;;;;;;;8.00;2.50;;;9.00;99.90;;;;;;494109;239;28035;-75
2021/05/26 04:49:03;;;;;;;6.27;1.80;;;9.00;99.90;;;;;;494085;241;27983;-75
2021/05/26 04:51:04;;;;;;;4.33;2.30;;;9.10;99.90;;;;;;494095;241;27980;-74
2021/05/26 04:53:05;;;;;;;7.07;2.33;;;9.20;99.90;;;;;;494115;241;27850;-74
2021/05/26 04:55:06;;;;;;;4.43;2.17;;;9.30;99.90;;;;;;494123;241;27869;-74
2021/05/26 04:57:08;;;;;;;4.77;2.50;;;9.30;99.90;;;;;;494119;241;27939;-75
2021/05/26 04:59:09;;;;;;;3.60;2.00;;;9.40;99.90;;;;;;494105;241;27744;-75
2021/05/26 05:01:10;;;;;;;6.00;2.47;;;9.20;99.90;;;;;;494138;241;28322;-76
2021/05/26 05:03:11;;;;;;;4.13;2.00;;;9.20;99.90;;;;;;494149;241;28055;-75
2021/05/26 05:05:13;;;;;;;6.80;2.10;;;9.10;99.90;;;;;;494098;239;28080;-75
2021/05/26 05:07:14;;;;;;;6.70;2.00;;;9.10;99.90;;;;;;494193;241;28171;-75
2021/05/26 05:09:15;;;;;;;5.60;2.50;;;9.00;99.90;;;;;;494090;241;27923;-75
2021/05/26 05:11:16;;;;;;;3.57;2.10;;;9.00;99.90;;;;;;494083;241;28042;-75
2021/05/26 05:13:18;;;;;;;4.43;2.00;;;8.90;99.90;;;;;;494182;241;28009;-75
2021/05/26 05:15:19;;;;;;;7.13;2.50;;;9.00;99.90;;;;;;494195;241;28548;-75
2021/05/26 05:17:20;;;;;;;4.20;2.20;;;9.10;99.90;;;;;;494162;237;28384;-75
2021/05/26 05:19:21;;;;;;;5.60;2.40;;;9.20;99.90;;;;;;494159;241;28324;-75
2021/05/26 05:21:23;;;;;;;6.20;2.30;;;9.30;99.90;;;;;;494087;241;29183;-75
2021/05/26 05:23:24;;;;;;;4.67;2.13;;;9.30;99.90;;;;;;494052;241;28476;-74
2021/05/26 05:25:25;;;;;;;10.00;2.53;;;9.30;99.90;;;;;;494066;241;28547;-75
2021/05/26 05:27:26;;;;;;;11.37;2.73;;;9.30;99.90;;;;;;494078;239;27816;-75
2021/05/26 05:29:28;;;;;;;5.63;2.60;;;9.30;99.90;;;;;;494110;241;27969;-75
2021/05/26 05:31:31;;;;;;;6.90;2.70;;;9.30;99.90;;;;;;494088;239;27575;-74
2021/05/26 05:33:30;;;;;;;6.10;2.43;;;9.40;99.90;;;;;;493894;241;27956;-75
2021/05/26 05:35:31;;;;;;;3.63;2.10;;;9.40;99.90;;;;;;494109;241;27983;-74
2021/05/26 05:37:33;;;;;;;3.73;1.97;;;9.50;99.90;;;;;;494114;241;28109;-75
2021/05/26 05:39:34;;;;;;;7.23;2.30;;;9.60;99.90;;;;;;493904;241;27975;-75
2021/05/26 05:41:35;;;;;;;5.53;2.73;;;9.70;99.90;;;;;;494086;241;28543;-75
2021/05/26 05:43:36;;;;;;;8.60;3.00;;;9.70;99.90;;;;;;494060;237;28075;-74
2021/05/26 05:45:38;;;;;;;4.43;2.27;;;9.80;99.90;;;;;;494067;241;28370;-74
2021/05/26 05:47:39;;;;;;;5.63;2.60;;;9.80;99.90;;;;;;494070;241;27976;-75
2021/05/26 05:49:40;;;;;;;6.30;2.73;;;9.70;99.90;;;;;;494075;241;28061;-75
2021/05/26 05:51:41;;;;;;;6.17;2.87;;;9.70;99.90;;;;;;494061;241;28615;-74
2021/05/26 05:53:43;;;;;;;5.57;2.60;;;9.60;99.90;;;;;;494016;237;28455;-75
2021/05/26 05:55:44;;;;;;;11.03;2.33;;;9.60;99.90;;;;;;494055;241;28527;-75
2021/05/26 05:57:45;;;;;;;6.67;2.90;;;9.50;99.90;;;;;;494061;241;28364;-75
2021/05/26 05:59:46;;;;;;;7.37;2.40;;;9.50;99.90;;;;;;494060;241;28467;-74
2021/05/26 06:01:48;;;;;;;6.73;3.00;;;9.40;99.90;;;;;;494085;241;27814;-75
2021/05/26 06:03:49;;;;;;;7.30;2.70;;;9.50;99.90;;;;;;494090;241;27747;-75
2021/05/26 06:05:50;;;;;;;3.83;2.33;;;9.40;99.90;;;;;;494100;241;28104;-74
2021/05/26 06:07:51;;;;;;;3.73;2.30;;;9.40;99.90;;;;;;494120;241;27931;-75
2021/05/26 06:09:53;;;;;;;8.07;2.70;;;9.40;99.90;;;;;;494101;237;27941;-74
2021/05/26 06:11:54;;;;;;;8.23;2.50;;;9.40;99.90;;;;;;494104;241;27689;-74
2021/05/26 06:13:55;;;;;;;6.60;2.53;;;9.30;99.90;;;;;;493926;241;27871;-75
2021/05/26 06:15:56;;;;;;;17.33;2.70;;;9.20;99.90;;;;;;494091;241;28010;-75
2021/05/26 06:17:58;;;;;;;6.63;2.77;;;9.30;99.90;;;;;;494061;241;27827;-75
2021/05/26 06:20:00;;;;;;;8.30;2.70;;;9.30;99.90;;;;;;494092;241;28125;-74
2021/05/26 06:22:00;;;;;;;4.70;2.13;;;9.30;99.90;;;;;;494143;239;27812;-75
2021/05/26 06:24:02;;;;;;;9.27;2.83;;;9.30;99.90;;;;;;494195;239;27966;-75
2021/05/26 06:26:03;;;;;;;3.77;2.30;;;9.30;99.90;;;;;;494080;241;28341;-75
2021/05/26 06:28:04;;;;;;;4.87;2.40;;;9.40;99.90;;;;;;494133;241;28517;-75
2021/05/26 06:30:05;;;;;;;4.90;2.10;;;9.40;99.90;;;;;;494058;241;28524;-75
2021/05/26 06:32:06;;;;;;;4.77;2.50;;;9.40;99.90;;;;;;494061;241;28289;-75
2021/05/26 06:34:08;;;;;;;7.87;2.67;;;9.30;99.90;;;;;;494115;239;28557;-75
2021/05/26 06:36:09;;;;;;;3.83;2.50;;;9.40;99.90;;;;;;494044;241;28274;-75
2021/05/26 06:38:10;;;;;;;5.50;2.50;;;9.50;99.90;;;;;;494173;241;28020;-76
2021/05/26 06:40:11;;;;;;;5.90;2.50;;;9.60;99.90;;;;;;494147;241;27833;-76
2021/05/26 06:42:13;;;;;;;3.87;1.80;;;9.50;99.90;;;;;;494194;241;27963;-75
2021/05/26 06:44:14;;;;;;;4.00;2.10;;;9.50;99.90;;;;;;494038;241;28110;-75
2021/05/26 06:46:15;;;;;;;3.47;1.87;;;9.60;99.90;;;;;;493627;241;28210;-75
2021/05/26 06:48:16;;;;;;;4.87;2.13;;;9.80;99.90;;;;;;493939;241;28103;-75
2021/05/26 06:50:18;;;;;;;6.37;2.70;;;9.90;99.90;;;;;;494086;241;28009;-75
2021/05/26 06:52:19;;;;;;;4.00;2.40;;;10.00;99.90;;;;;;494079;241;28085;-75
2021/05/26 06:54:20;;;;;;;3.63;2.23;;;10.00;99.90;;;;;;494162;237;28098;-76
2021/05/26 06:56:22;;;;;;;4.60;2.40;;;10.20;99.90;;;;;;494207;241;28066;-75
2021/05/26 06:58:23;;;;;;;6.80;2.97;;;10.10;99.90;;;;;;494156;241;28314;-75
2021/05/26 07:00:24;;;;;;;3.73;1.90;;;10.20;99.90;;;;;;494071;241;28475;-75
2021/05/26 07:02:25;;;;;;;5.70;2.73;;;10.10;99.90;;;;;;494090;241;28753;-75
2021/05/26 07:04:26;;;;;;;4.60;2.43;;;10.30;99.90;;;;;;494118;241;28751;-75
2021/05/26 07:06:28;;;;;;;5.97;2.30;;;10.30;99.90;;;;;;494190;241;29654;-75
2021/05/26 07:08:29;;;;;;;3.90;2.00;;;10.40;99.90;;;;;;494120;241;28288;-74
2021/05/26 07:10:30;;;;;;;6.80;2.43;;;10.40;99.90;;;;;;494181;241;28359;-75
2021/05/26 07:12:31;;;;;;;4.50;2.40;;;10.50;99.90;;;;;;494110;241;28102;-75
2021/05/26 07:14:33;;;;;;;6.20;2.13;;;10.50;99.90;;;;;;494173;241;28222;-75
2021/05/26 07:16:34;;;;;;;4.50;2.53;;;10.40;99.90;;;;;;494186;241;28348;-75
2021/05/26 07:18:36;;;;;;;4.80;2.40;;;10.20;99.90;;;;;;494142;241;28182;-75
2021/05/26 07:20:39;;;;;;;2.23;1.87;;;10.10;99.90;;;;;;494030;241;28214;-74
2021/05/26 07:22:38;;;;;;;4.67;2.63;;;10.10;99.90;;;;;;493899;241;28185;-75
2021/05/26 07:24:39;;;;;;;5.10;2.70;;;10.00;99.90;;;;;;494136;241;28785;-75
2021/05/26 07:26:40;;;;;;;3.37;2.47;;;10.00;99.90;;;;;;494128;241;28719;-75
2021/05/26 07:28:41;;;;;;;6.80;2.63;;;9.90;99.90;;;;;;494134;241;28896;-75
2021/05/26 07:30:43;;;;;;;5.83;2.67;;;9.80;99.90;;;;;;494146;241;29084;-75
2021/05/26 07:32:44;;;;;;;5.20;2.93;;;9.80;99.90;;;;;;494120;241;27992;-74
2021/05/26 07:34:45;;;;;;;6.03;2.83;;;9.80;99.90;;;;;;494068;241;27982;-75
2021/05/26 07:36:46;;;;;;;5.17;2.27;;;9.80;99.90;;;;;;494079;241;27879;-75
2021/05/26 07:38:48;;;;;;;6.90;2.87;;;9.80;99.90;;;;;;494170;241;27959;-74
2021/05/26 07:40:49;;;;;;;4.23;2.90;;;9.90;99.90;;;;;;494186;241;27939;-75
2021/05/26 07:42:50;;;;;;;7.07;2.63;;;9.70;99.90;;;;;;494136;241;28067;-75
2021/05/26 07:44:51;;;;;;;6.30;2.60;;;9.70;99.90;;;;;;494090;241;27957;-74
2021/05/26 07:46:54;;;;;;;9.73;2.77;;;9.70;99.90;;;;;;494083;241;27960;-75
2021/05/26 07:48:54;;;;;;;7.57;2.77;;;9.70;99.90;;;;;;494080;241;28047;-74
2021/05/26 07:50:55;;;;;;;8.20;2.80;;;9.70;99.90;;;;;;494079;241;27947;-74
2021/05/26 07:52:56;;;;;;;7.73;2.70;;;9.70;99.90;;;;;;493515;241;28422;-75
2021/05/26 07:54:58;;;;;;;7.60;3.10;;;9.70;99.90;;;;;;493972;241;28055;-74
2021/05/26 07:57:00;;;;;;;6.07;2.70;;;9.60;99.90;;;;;;494086;241;27901;-74
2021/05/26 07:59:00;;;;;;;6.10;2.47;;;9.70;99.90;;;;;;494153;241;28089;-75
2021/05/26 08:01:01;;;;;;;5.20;3.00;;;9.70;99.90;;;;;;494219;241;28389;-75
2021/05/26 08:03:03;;;;;;;3.13;2.00;;;9.70;99.90;;;;;;494154;241;28446;-75
2021/05/26 08:05:04;;;;;;;10.83;2.60;;;9.80;99.90;;;;;;494103;241;28441;-74
2021/05/26 08:07:05;;;;;;;6.10;2.60;;;9.80;99.90;;;;;;494071;241;28445;-74
2021/05/26 08:09:06;;;;;;;3.63;2.10;;;9.80;99.90;;;;;;494078;241;27854;-74
2021/05/26 08:11:08;;;;;;;5.03;2.40;;;9.80;99.90;;;;;;494068;239;27924;-75
2021/05/26 08:13:09;;;;;;;4.17;2.40;;;9.90;99.90;;;;;;494029;241;27957;-74
2021/05/26 08:15:10;;;;;;;5.63;2.23;;;9.90;99.90;;;;;;494080;241;28078;-75
2021/05/26 08:17:11;;;;;;;4.10;2.80;;;9.90;99.90;;;;;;494032;241;27872;-75
2021/05/26 08:19:13;;;;;;;6.23;2.20;;;9.90;99.90;;;;;;494063;241;27955;-74
2021/05/26 08:21:15;;;;;;;3.20;2.27;;;9.80;99.90;;;;;;494154;241;28258;-75
2021/05/26 08:23:15;;;;;;;4.23;2.20;;;9.70;99.90;;;;;;494069;241;27937;-75
2021/05/26 08:25:16;;;;;;;3.87;1.90;;;9.60;99.90;;;;;;494129;241;28071;-75
2021/05/26 08:27:18;;;;;;;3.50;2.13;;;9.70;99.90;;;;;;494060;241;28040;-75
2021/05/26 08:29:19;;;;;;;3.93;2.00;;;9.80;99.90;;;;;;494086;241;27737;-75
2021/05/26 08:31:20;;;;;;;3.57;2.17;;;9.80;99.90;;;;;;494061;241;28052;-75
2021/05/26 08:33:21;;;;;;;6.13;2.10;;;9.90;99.90;;;;;;494069;241;28172;-75
2021/05/26 08:35:23;;;;;;;4.00;2.13;;;9.80;99.90;;;;;;494059;241;27930;-75
2021/05/26 08:37:24;;;;;;;3.80;1.80;;;9.70;99.90;;;;;;494046;241;28430;-75
2021/05/26 08:39:25;;;;;;;3.33;2.00;;;9.80;99.90;;;;;;494112;241;28668;-76
2021/05/26 08:41:28;;;;;;;2.93;1.97;;;9.90;99.90;;;;;;494121;241;28276;-76
2021/05/26 08:43:28;;;;;;;3.40;2.13;;;10.10;99.90;;;;;;493896;241;28648;-75
2021/05/26 08:45:29;;;;;;;3.30;2.23;;;10.20;99.90;;;;;;494145;239;28053;-75
2021/05/26 08:47:30;;;;;;;5.23;2.10;;;10.20;99.90;;;;;;494149;241;28276;-74
2021/05/26 08:49:32;;;;;;;4.93;2.00;;;10.20;99.90;;;;;;494145;240;28200;-75
2021/05/26 08:51:33;;;;;;;5.53;1.80;;;10.20;99.90;;;;;;494043;237;27997;-75
2021/05/26 08:53:34;;;;;;;2.90;1.80;;;10.20;99.90;;;;;;494040;241;28049;-74
2021/05/26 08:55:35;;;;;;;5.47;2.00;;;10.20;99.90;;;;;;494128;241;28258;-74
2021/05/26 08:57:36;;;;;;;1.67;1.57;;;10.30;99.90;;;;;;494113;241;28197;-76
2021/05/26 08:59:38;;;;;;;1.97;1.67;;;10.30;99.90;;;;;;494078;241;28181;-75
2021/05/26 09:01:39;;;;;;;2.70;1.87;;;10.20;99.90;;;;;;494195;241;28160;-76
2021/05/26 09:03:40;;;;;;;1.70;1.60;;;10.20;99.90;;;;;;494140;241;28641;-75
2021/05/26 09:05:45;;;;;;;4.03;1.87;;;10.20;99.90;;;;;;494059;241;28606;-75
2021/05/26 09:07:43;;;;;;;3.17;2.00;;;10.10;99.90;;;;;;493871;237;28555;-75
2021/05/26 09:09:44;;;;;;;2.07;1.57;;;10.00;99.90;;;;;;494193;237;28150;-74
2021/05/26 09:11:45;;;;;;;5.50;1.93;;;10.10;99.90;;;;;;494185;239;28113;-76
2021/05/26 09:13:46;;;;;;;2.47;1.93;;;10.20;99.90;;;;;;494180;240;28055;-75
2021/05/26 09:15:48;;;;;;;2.80;1.83;;;10.20;99.90;;;;;;494112;241;28018;-75
2021/05/26 09:17:49;;;;;;;3.00;1.60;;;10.10;99.90;;;;;;494152;241;28104;-76
2021/05/26 09:19:50;;;;;;;2.37;1.70;;;10.20;99.90;;;;;;494096;241;28664;-74
2021/05/26 09:21:55;;;;;;;1.90;1.60;;;10.20;99.90;;;;;;494100;241;28667;-76
2021/05/26 09:23:53;;;;;;;2.30;1.70;;;10.20;99.90;;;;;;493798;241;28215;-75
2021/05/26 09:25:55;;;;;;;3.70;1.80;;;10.20;99.90;;;;;;494069;241;28223;-75
2021/05/26 09:27:55;;;;;;;1.67;1.40;;;10.20;99.90;;;;;;494022;241;28545;-75
2021/05/26 09:29:56;;;;;;;3.30;1.90;;;10.30;99.90;;;;;;494138;241;28664;-76
2021/05/26 09:31:58;;;;;;;3.50;3.20;;;10.30;99.90;;;;;;494056;241;28685;-76
2021/05/26 09:33:59;;;;;;;1.80;1.70;;;10.20;99.90;;;;;;494096;241;28717;-74
2021/05/26 09:36:00;;;;;;;4.33;2.10;;;10.30;99.90;;;;;;493948;241;28051;-75
2021/05/26 09:38:01;;;;;;;8.90;6.10;;;10.30;99.90;;;;;;494178;241;28182;-76
2021/05/26 09:40:21;;;;;;;2.17;1.93;;;10.30;99.90;;;;;;494149;241;28114;-76
2021/05/26 09:42:07;;;;;;;5.87;3.53;;;10.20;99.90;;;;;;492910;241;28093;-74
2021/05/26 09:44:11;;;;;;;2.40;2.20;;;10.20;99.90;;;;;;494113;241;27996;-74
2021/05/26 09:46:12;;;;;;;3.10;2.90;;;10.30;99.90;;;;;;494078;241;28162;-75
2021/05/26 09:48:13;;;;;;;2.40;2.20;;;10.30;99.90;;;;;;494084;239;28003;-76
2021/05/26 09:50:15;;;;;;;2.30;2.10;;;10.20;99.90;;;;;;494081;241;28028;-75
2021/05/26 09:52:17;;;;;;;4.30;3.90;;;10.20;99.90;;;;;;494088;241;28063;-75
2021/05/26 09:54:17;;;;;;;2.00;1.80;;;10.20;99.90;;;;;;493998;237;27969;-74
2021/05/26 09:56:18;;;;;;;2.73;2.53;;;10.30;99.90;;;;;;494053;241;28191;-75
2021/05/26 09:58:20;;;;;;;2.27;2.07;;;10.30;99.90;;;;;;494093;241;28126;-76
2021/05/26 10:00:21;;;;;;;2.03;1.70;;;10.30;99.90;;;;;;494133;241;28042;-76
2021/05/26 10:02:22;;;;;;;1.97;1.87;;;10.30;99.90;;;;;;494147;241;28699;-74
2021/05/26 10:04:23;;;;;;;1.70;1.60;;;10.20;99.90;;;;;;494079;241;28630;-76
2021/05/26 10:06:27;;;;;;;2.57;2.30;;;10.30;99.90;;;;;;494057;239;28555;-75
2021/05/26 10:08:26;;;;;;;2.20;1.77;;;10.30;99.90;;;;;;493983;237;28125;-75
2021/05/26 10:10:28;;;;;;;1.73;1.63;;;10.20;99.90;;;;;;494122;239;28072;-75
2021/05/26 10:12:28;;;;;;;2.63;2.07;;;10.20;99.90;;;;;;493883;239;27956;-76
2021/05/26 10:14:30;;;;;;;1.90;1.80;;;10.20;99.90;;;;;;494010;241;28127;-75
2021/05/26 10:16:32;;;;;;;1.57;1.47;;;10.20;99.90;;;;;;494085;239;28157;-75
2021/05/26 10:18:32;;;;;;;1.90;1.67;;;10.10;99.90;;;;;;493946;237;28105;-75
2021/05/26 10:20:33;;;;;;;2.33;2.10;;;10.10;99.90;;;;;;494014;241;28034;-75
2021/05/26 10:22:35;;;;;;;2.57;1.90;;;10.20;99.90;;;;;;493997;241;28229;-76
2021/05/26 10:24:36;;;;;;;4.20;1.47;;;10.20;99.90;;;;;;494081;241;29568;-74
2021/05/26 10:26:37;;;;;;;5.13;3.27;;;10.20;99.90;;;;;;494074;239;28712;-76
2021/05/26 10:28:38;;;;;;;2.77;1.60;;;10.20;99.90;;;;;;494147;241;28679;-75
2021/05/26 10:30:40;;;;;;;1.37;1.27;;;10.20;99.90;;;;;;494024;241;28633;-75
2021/05/26 10:32:41;;;;;;;2.40;1.70;;;10.20;99.90;;;;;;494002;241;28092;-75
2021/05/26 10:34:42;;;;;;;1.90;1.80;;;10.30;99.90;;;;;;494000;241;28070;-75
2021/05/26 10:36:43;;;;;;;2.50;1.80;;;10.30;99.90;;;;;;494098;241;27954;-76
2021/05/26 10:38:45;;;;;;;2.93;1.67;;;10.30;99.90;;;;;;494120;241;28217;-75
2021/05/26 10:40:46;;;;;;;1.63;1.53;;;10.40;99.90;;;;;;494079;241;28266;-76